sensor_id;sensor_type;location;lat;lon;timestamp;P1;durP1;ratioP1;P2;durP2;ratioP2
13834;SDS011;6988;52.614;13.500;2023-08-31T00:01:02;3.70;;;3.40;;
13834;SDS011;6988;52.614;13.500;2023-08-31T00:05:54;5.10;;;3.43;;
13834;SDS011;6988;52.614;13.500;2023-08-31T00:10:46;4.13;;;3.67;;
13834;SDS011;6988;52.614;13.500;2023-08-31T00:15:47;5.53;;;3.80;;
13834;SDS011;6988;52.614;13.500;2023-08-31T00:20:40;4.13;;;3.20;;
13834;SDS011;6988;52.614;13.500;2023-08-31T00:25:32;5.27;;;3.73;;
13834;SDS011;6988;52.614;13.500;2023-08-31T00:30:24;4.90;;;3.40;;
13834;SDS011;6988;52.614;13.500;2023-08-31T00:35:19;3.83;;;3.53;;
13834;SDS011;6988;52.614;13.500;2023-08-31T00:40:12;3.70;;;3.13;;
13834;SDS011;6988;52.614;13.500;2023-08-31T00:45:05;3.87;;;3.47;;
13834;SDS011;6988;52.614;13.500;2023-08-31T00:49:58;4.73;;;3.60;;
13834;SDS011;6988;52.614;13.500;2023-08-31T00:54:52;4.47;;;4.00;;
13834;SDS011;6988;52.614;13.500;2023-08-31T00:59:46;4.30;;;3.90;;
13834;SDS011;6988;52.614;13.500;2023-08-31T01:04:40;4.07;;;3.60;;
13834;SDS011;6988;52.614;13.500;2023-08-31T01:09:49;3.97;;;3.40;;
13834;SDS011;6988;52.614;13.500;2023-08-31T01:14:56;5.40;;;4.00;;
13834;SDS011;6988;52.614;13.500;2023-08-31T01:19:58;4.23;;;3.87;;
13834;SDS011;6988;52.614;13.500;2023-08-31T01:24:55;4.47;;;4.07;;
13834;SDS011;6988;52.614;13.500;2023-08-31T01:29:54;4.43;;;4.03;;
13834;SDS011;6988;52.614;13.500;2023-08-31T01:34:48;7.13;;;5.07;;
13834;SDS011;6988;52.614;13.500;2023-08-31T01:39:44;6.33;;;5.73;;
13834;SDS011;6988;52.614;13.500;2023-08-31T01:44:45;6.60;;;5.90;;
13834;SDS011;6988;52.614;13.500;2023-08-31T01:49:40;5.23;;;4.73;;
13834;SDS011;6988;52.614;13.500;2023-08-31T01:54:33;4.93;;;4.40;;
13834;SDS011;6988;52.614;13.500;2023-08-31T01:59:27;4.77;;;4.27;;
13834;SDS011;6988;52.614;13.500;2023-08-31T02:04:21;4.60;;;4.20;;
13834;SDS011;6988;52.614;13.500;2023-08-31T02:09:13;5.20;;;4.50;;
13834;SDS011;6988;52.614;13.500;2023-08-31T02:14:05;5.40;;;4.90;;
13834;SDS011;6988;52.614;13.500;2023-08-31T02:18:58;5.57;;;4.27;;
13834;SDS011;6988;52.614;13.500;2023-08-31T02:23:52;5.67;;;4.40;;
13834;SDS011;6988;52.614;13.500;2023-08-31T02:28:44;5.20;;;4.70;;
13834;SDS011;6988;52.614;13.500;2023-08-31T02:33:36;3.33;;;3.03;;
13834;SDS011;6988;52.614;13.500;2023-08-31T02:38:27;3.37;;;2.77;;
13834;SDS011;6988;52.614;13.500;2023-08-31T02:43:20;3.43;;;2.77;;
13834;SDS011;6988;52.614;13.500;2023-08-31T02:48:13;3.87;;;3.10;;
13834;SDS011;6988;52.614;13.500;2023-08-31T02:53:05;3.57;;;2.70;;
13834;SDS011;6988;52.614;13.500;2023-08-31T02:57:57;3.13;;;2.57;;
13834;SDS011;6988;52.614;13.500;2023-08-31T03:02:51;3.47;;;2.30;;
13834;SDS011;6988;52.614;13.500;2023-08-31T03:07:43;3.10;;;2.10;;
13834;SDS011;6988;52.614;13.500;2023-08-31T03:12:36;3.80;;;2.20;;
13834;SDS011;6988;52.614;13.500;2023-08-31T03:17:30;2.57;;;2.33;;
13834;SDS011;6988;52.614;13.500;2023-08-31T03:22:24;2.50;;;2.30;;
13834;SDS011;6988;52.614;13.500;2023-08-31T03:27:15;2.50;;;2.30;;
13834;SDS011;6988;52.614;13.500;2023-08-31T03:32:08;2.53;;;2.33;;
13834;SDS011;6988;52.614;13.500;2023-08-31T03:37:01;2.77;;;2.47;;
13834;SDS011;6988;52.614;13.500;2023-08-31T03:41:55;3.97;;;2.63;;
13834;SDS011;6988;52.614;13.500;2023-08-31T03:46:47;4.10;;;2.90;;
13834;SDS011;6988;52.614;13.500;2023-08-31T03:51:39;3.17;;;2.83;;
13834;SDS011;6988;52.614;13.500;2023-08-31T03:56:31;3.53;;;2.73;;
13834;SDS011;6988;52.614;13.500;2023-08-31T04:01:27;6.43;;;3.53;;
13834;SDS011;6988;52.614;13.500;2023-08-31T04:06:19;3.80;;;3.20;;
13834;SDS011;6988;52.614;13.500;2023-08-31T04:11:10;3.97;;;3.27;;
13834;SDS011;6988;52.614;13.500;2023-08-31T04:16:02;4.00;;;3.47;;
13834;SDS011;6988;52.614;13.500;2023-08-31T04:20:56;5.13;;;3.63;;
13834;SDS011;6988;52.614;13.500;2023-08-31T04:25:49;4.80;;;4.13;;
13834;SDS011;6988;52.614;13.500;2023-08-31T04:30:43;5.10;;;4.50;;
13834;SDS011;6988;52.614;13.500;2023-08-31T04:35:35;6.33;;;4.70;;
13834;SDS011;6988;52.614;13.500;2023-08-31T04:40:28;6.77;;;5.90;;
13834;SDS011;6988;52.614;13.500;2023-08-31T04:45:20;7.20;;;5.90;;
13834;SDS011;6988;52.614;13.500;2023-08-31T04:50:12;7.70;;;5.80;;
13834;SDS011;6988;52.614;13.500;2023-08-31T04:55:05;6.87;;;5.87;;
13834;SDS011;6988;52.614;13.500;2023-08-31T04:59:59;8.10;;;6.60;;
13834;SDS011;6988;52.614;13.500;2023-08-31T05:04:53;7.67;;;6.60;;
13834;SDS011;6988;52.614;13.500;2023-08-31T05:09:45;8.20;;;7.13;;
13834;SDS011;6988;52.614;13.500;2023-08-31T05:14:37;10.77;;;8.33;;
13834;SDS011;6988;52.614;13.500;2023-08-31T05:19:31;9.60;;;8.27;;
13834;SDS011;6988;52.614;13.500;2023-08-31T05:24:23;10.87;;;9.77;;
13834;SDS011;6988;52.614;13.500;2023-08-31T05:29:15;10.93;;;9.13;;
13834;SDS011;6988;52.614;13.500;2023-08-31T05:34:09;10.53;;;9.43;;
13834;SDS011;6988;52.614;13.500;2023-08-31T05:39:05;10.43;;;9.20;;
13834;SDS011;6988;52.614;13.500;2023-08-31T05:43:59;10.03;;;9.03;;
13834;SDS011;6988;52.614;13.500;2023-08-31T05:48:51;11.17;;;9.40;;
13834;SDS011;6988;52.614;13.500;2023-08-31T05:53:43;12.53;;;9.43;;
13834;SDS011;6988;52.614;13.500;2023-08-31T05:58:36;12.37;;;9.30;;
13834;SDS011;6988;52.614;13.500;2023-08-31T06:03:28;10.20;;;9.20;;
13834;SDS011;6988;52.614;13.500;2023-08-31T06:08:21;9.77;;;8.77;;
13834;SDS011;6988;52.614;13.500;2023-08-31T06:13:13;12.33;;;10.03;;
13834;SDS011;6988;52.614;13.500;2023-08-31T06:18:06;10.33;;;8.97;;
13834;SDS011;6988;52.614;13.500;2023-08-31T06:22:58;10.00;;;9.00;;
13834;SDS011;6988;52.614;13.500;2023-08-31T06:27:50;11.10;;;9.13;;
13834;SDS011;6988;52.614;13.500;2023-08-31T06:32:42;10.37;;;8.93;;
13834;SDS011;6988;52.614;13.500;2023-08-31T06:37:36;8.63;;;7.73;;
13834;SDS011;6988;52.614;13.500;2023-08-31T06:42:28;11.27;;;8.80;;
13834;SDS011;6988;52.614;13.500;2023-08-31T06:47:20;9.27;;;7.93;;
13834;SDS011;6988;52.614;13.500;2023-08-31T06:52:12;11.90;;;8.20;;
13834;SDS011;6988;52.614;13.500;2023-08-31T06:57:05;10.03;;;8.10;;
13834;SDS011;6988;52.614;13.500;2023-08-31T07:01:57;9.73;;;7.80;;
13834;SDS011;6988;52.614;13.500;2023-08-31T07:06:49;10.77;;;7.70;;
13834;SDS011;6988;52.614;13.500;2023-08-31T07:11:42;10.97;;;7.67;;
13834;SDS011;6988;52.614;13.500;2023-08-31T07:16:35;9.93;;;7.80;;
13834;SDS011;6988;52.614;13.500;2023-08-31T07:21:26;8.33;;;7.13;;
13834;SDS011;6988;52.614;13.500;2023-08-31T07:26:18;10.00;;;7.23;;
13834;SDS011;6988;52.614;13.500;2023-08-31T07:31:12;8.23;;;6.37;;
13834;SDS011;6988;52.614;13.500;2023-08-31T07:36:06;8.00;;;5.93;;
13834;SDS011;6988;52.614;13.500;2023-08-31T07:40:58;8.97;;;5.90;;
13834;SDS011;6988;52.614;13.500;2023-08-31T07:45:51;6.63;;;5.00;;
13834;SDS011;6988;52.614;13.500;2023-08-31T07:50:44;8.63;;;4.67;;
13834;SDS011;6988;52.614;13.500;2023-08-31T07:55:38;9.17;;;4.30;;
13834;SDS011;6988;52.614;13.500;2023-08-31T08:00:30;5.83;;;3.63;;
13834;SDS011;6988;52.614;13.500;2023-08-31T08:05:22;5.60;;;3.23;;
13834;SDS011;6988;52.614;13.500;2023-08-31T08:10:14;5.47;;;2.87;;
13834;SDS011;6988;52.614;13.500;2023-08-31T08:15:08;5.73;;;2.83;;
13834;SDS011;6988;52.614;13.500;2023-08-31T08:20:01;4.00;;;2.90;;
13834;SDS011;6988;52.614;13.500;2023-08-31T08:24:53;4.43;;;2.80;;
13834;SDS011;6988;52.614;13.500;2023-08-31T08:29:46;5.97;;;2.90;;
13834;SDS011;6988;52.614;13.500;2023-08-31T08:34:39;3.47;;;2.40;;
13834;SDS011;6988;52.614;13.500;2023-08-31T08:39:31;6.77;;;2.23;;
13834;SDS011;6988;52.614;13.500;2023-08-31T08:44:23;4.17;;;1.47;;
13834;SDS011;6988;52.614;13.500;2023-08-31T08:49:17;3.73;;;1.77;;
13834;SDS011;6988;52.614;13.500;2023-08-31T08:54:11;4.30;;;1.90;;
13834;SDS011;6988;52.614;13.500;2023-08-31T08:59:03;3.83;;;1.70;;
13834;SDS011;6988;52.614;13.500;2023-08-31T09:03:56;2.97;;;1.50;;
13834;SDS011;6988;52.614;13.500;2023-08-31T09:08:53;2.43;;;1.50;;
13834;SDS011;6988;52.614;13.500;2023-08-31T09:13:47;3.43;;;1.53;;
13834;SDS011;6988;52.614;13.500;2023-08-31T09:18:40;4.40;;;1.20;;
13834;SDS011;6988;52.614;13.500;2023-08-31T09:23:32;3.33;;;1.10;;
13834;SDS011;6988;52.614;13.500;2023-08-31T09:28:26;2.27;;;1.10;;
13834;SDS011;6988;52.614;13.500;2023-08-31T09:33:20;3.30;;;1.00;;
13834;SDS011;6988;52.614;13.500;2023-08-31T09:38:12;3.13;;;1.07;;
13834;SDS011;6988;52.614;13.500;2023-08-31T09:43:06;5.60;;;1.20;;
13834;SDS011;6988;52.614;13.500;2023-08-31T09:47:58;3.33;;;1.20;;
13834;SDS011;6988;52.614;13.500;2023-08-31T09:52:55;4.03;;;1.20;;
13834;SDS011;6988;52.614;13.500;2023-08-31T09:57:52;2.10;;;1.20;;
13834;SDS011;6988;52.614;13.500;2023-08-31T10:02:47;1.50;;;1.00;;
13834;SDS011;6988;52.614;13.500;2023-08-31T10:07:41;3.13;;;1.03;;
13834;SDS011;6988;52.614;13.500;2023-08-31T10:12:36;2.97;;;1.20;;
13834;SDS011;6988;52.614;13.500;2023-08-31T10:17:31;2.07;;;1.10;;
13834;SDS011;6988;52.614;13.500;2023-08-31T10:22:23;2.40;;;1.10;;
13834;SDS011;6988;52.614;13.500;2023-08-31T10:27:19;4.30;;;1.23;;
13834;SDS011;6988;52.614;13.500;2023-08-31T10:32:12;1.65;;;0.93;;
13834;SDS011;6988;52.614;13.500;2023-08-31T10:37:21;2.53;;;1.02;;
13834;SDS011;6988;52.614;13.500;2023-08-31T10:42:13;3.08;;;1.17;;
13834;SDS011;6988;52.614;13.500;2023-08-31T10:47:05;1.33;;;0.88;;
13834;SDS011;6988;52.614;13.500;2023-08-31T10:52:14;2.67;;;1.20;;
13834;SDS011;6988;52.614;13.500;2023-08-31T10:57:08;3.97;;;1.20;;
13834;SDS011;6988;52.614;13.500;2023-08-31T11:02:02;3.40;;;1.37;;
13834;SDS011;6988;52.614;13.500;2023-08-31T11:07:15;2.80;;;1.17;;
13834;SDS011;6988;52.614;13.500;2023-08-31T11:12:09;2.63;;;1.30;;
13834;SDS011;6988;52.614;13.500;2023-08-31T11:17:03;4.53;;;1.57;;
13834;SDS011;6988;52.614;13.500;2023-08-31T11:21:56;3.10;;;1.27;;
13834;SDS011;6988;52.614;13.500;2023-08-31T11:26:50;4.07;;;1.70;;
13834;SDS011;6988;52.614;13.500;2023-08-31T11:31:43;2.17;;;1.00;;
13834;SDS011;6988;52.614;13.500;2023-08-31T11:36:34;4.40;;;1.53;;
13834;SDS011;6988;52.614;13.500;2023-08-31T11:41:29;2.50;;;0.90;;
13834;SDS011;6988;52.614;13.500;2023-08-31T11:46:24;3.27;;;1.30;;
13834;SDS011;6988;52.614;13.500;2023-08-31T11:51:18;1.77;;;1.27;;
13834;SDS011;6988;52.614;13.500;2023-08-31T11:56:11;2.27;;;1.17;;
13834;SDS011;6988;52.614;13.500;2023-08-31T12:01:02;3.03;;;1.30;;
13834;SDS011;6988;52.614;13.500;2023-08-31T12:05:56;3.37;;;1.33;;
13834;SDS011;6988;52.614;13.500;2023-08-31T12:10:48;2.73;;;1.10;;
13834;SDS011;6988;52.614;13.500;2023-08-31T12:15:40;2.57;;;1.47;;
13834;SDS011;6988;52.614;13.500;2023-08-31T12:20:32;4.40;;;1.30;;
13834;SDS011;6988;52.614;13.500;2023-08-31T12:25:32;2.17;;;1.40;;
13834;SDS011;6988;52.614;13.500;2023-08-31T12:30:24;3.53;;;1.43;;
13834;SDS011;6988;52.614;13.500;2023-08-31T12:35:16;4.30;;;2.00;;
13834;SDS011;6988;52.614;13.500;2023-08-31T12:40:08;5.17;;;2.17;;
13834;SDS011;6988;52.614;13.500;2023-08-31T12:45:02;4.70;;;1.80;;
13834;SDS011;6988;52.614;13.500;2023-08-31T12:49:56;3.57;;;1.60;;
13834;SDS011;6988;52.614;13.500;2023-08-31T12:54:47;3.27;;;1.90;;
13834;SDS011;6988;52.614;13.500;2023-08-31T12:59:39;2.60;;;1.90;;
13834;SDS011;6988;52.614;13.500;2023-08-31T13:04:33;2.93;;;1.37;;
13834;SDS011;6988;52.614;13.500;2023-08-31T13:09:25;4.47;;;2.20;;
13834;SDS011;6988;52.614;13.500;2023-08-31T13:14:18;2.97;;;1.97;;
13834;SDS011;6988;52.614;13.500;2023-08-31T13:19:09;2.17;;;1.83;;
13834;SDS011;6988;52.614;13.500;2023-08-31T13:24:03;2.20;;;1.30;;
13834;SDS011;6988;52.614;13.500;2023-08-31T13:28:55;3.17;;;1.73;;
13834;SDS011;6988;52.614;13.500;2023-08-31T13:33:47;2.87;;;1.57;;
13834;SDS011;6988;52.614;13.500;2023-08-31T13:38:39;1.97;;;1.40;;
13834;SDS011;6988;52.614;13.500;2023-08-31T13:43:32;1.40;;;1.03;;
13834;SDS011;6988;52.614;13.500;2023-08-31T13:48:24;3.27;;;1.00;;
13834;SDS011;6988;52.614;13.500;2023-08-31T13:53:16;1.93;;;1.10;;
13834;SDS011;6988;52.614;13.500;2023-08-31T13:58:08;1.40;;;0.97;;
13834;SDS011;6988;52.614;13.500;2023-08-31T14:03:01;5.97;;;1.00;;
13834;SDS011;6988;52.614;13.500;2023-08-31T14:07:55;2.50;;;1.00;;
13834;SDS011;6988;52.614;13.500;2023-08-31T14:12:48;3.57;;;1.10;;
13834;SDS011;6988;52.614;13.500;2023-08-31T14:17:41;2.03;;;1.00;;
13834;SDS011;6988;52.614;13.500;2023-08-31T14:22:34;2.17;;;1.10;;
13834;SDS011;6988;52.614;13.500;2023-08-31T14:27:26;1.60;;;1.20;;
13834;SDS011;6988;52.614;13.500;2023-08-31T14:32:20;1.93;;;1.00;;
13834;SDS011;6988;52.614;13.500;2023-08-31T14:37:12;2.57;;;1.10;;
13834;SDS011;6988;52.614;13.500;2023-08-31T14:42:05;3.83;;;1.00;;
13834;SDS011;6988;52.614;13.500;2023-08-31T14:46:57;1.97;;;1.10;;
13834;SDS011;6988;52.614;13.500;2023-08-31T14:51:49;2.60;;;1.20;;
13834;SDS011;6988;52.614;13.500;2023-08-31T14:56:41;1.50;;;0.90;;
13834;SDS011;6988;52.614;13.500;2023-08-31T15:01:34;6.40;;;1.30;;
13834;SDS011;6988;52.614;13.500;2023-08-31T15:06:26;1.40;;;1.00;;
13834;SDS011;6988;52.614;13.500;2023-08-31T15:11:19;2.00;;;0.90;;
13834;SDS011;6988;52.614;13.500;2023-08-31T15:16:11;2.90;;;1.17;;
13834;SDS011;6988;52.614;13.500;2023-08-31T15:21:04;3.13;;;1.30;;
13834;SDS011;6988;52.614;13.500;2023-08-31T15:25:58;2.93;;;1.07;;
13834;SDS011;6988;52.614;13.500;2023-08-31T15:30:51;2.70;;;1.33;;
13834;SDS011;6988;52.614;13.500;2023-08-31T15:35:43;1.87;;;1.10;;
13834;SDS011;6988;52.614;13.500;2023-08-31T15:40:36;2.90;;;1.10;;
13834;SDS011;6988;52.614;13.500;2023-08-31T15:45:28;1.10;;;1.00;;
13834;SDS011;6988;52.614;13.500;2023-08-31T15:50:20;1.70;;;1.13;;
13834;SDS011;6988;52.614;13.500;2023-08-31T15:55:12;2.13;;;1.10;;
13834;SDS011;6988;52.614;13.500;2023-08-31T16:00:08;3.87;;;1.10;;
13834;SDS011;6988;52.614;13.500;2023-08-31T16:05:03;2.30;;;1.07;;
13834;SDS011;6988;52.614;13.500;2023-08-31T16:09:56;2.10;;;1.20;;
13834;SDS011;6988;52.614;13.500;2023-08-31T16:20:20;1.23;;;0.90;;
13834;SDS011;6988;52.614;13.500;2023-08-31T16:25:12;1.90;;;1.10;;
13834;SDS011;6988;52.614;13.500;2023-08-31T16:30:07;1.53;;;0.90;;
13834;SDS011;6988;52.614;13.500;2023-08-31T16:35:02;0.90;;;0.70;;
13834;SDS011;6988;52.614;13.500;2023-08-31T16:39:55;1.33;;;0.90;;
13834;SDS011;6988;52.614;13.500;2023-08-31T16:44:47;0.90;;;0.80;;
13834;SDS011;6988;52.614;13.500;2023-08-31T16:49:39;2.03;;;0.83;;
13834;SDS011;6988;52.614;13.500;2023-08-31T16:54:33;1.97;;;1.30;;
13834;SDS011;6988;52.614;13.500;2023-08-31T16:59:25;1.83;;;1.10;;
13834;SDS011;6988;52.614;13.500;2023-08-31T17:04:17;1.53;;;1.10;;
13834;SDS011;6988;52.614;13.500;2023-08-31T17:09:08;2.37;;;1.07;;
13834;SDS011;6988;52.614;13.500;2023-08-31T17:14:02;1.37;;;1.10;;
13834;SDS011;6988;52.614;13.500;2023-08-31T17:18:54;2.87;;;1.33;;
13834;SDS011;6988;52.614;13.500;2023-08-31T17:23:46;2.57;;;1.10;;
13834;SDS011;6988;52.614;13.500;2023-08-31T17:28:38;1.73;;;1.00;;
13834;SDS011;6988;52.614;13.500;2023-08-31T17:33:31;1.87;;;0.70;;
13834;SDS011;6988;52.614;13.500;2023-08-31T17:38:23;1.10;;;0.80;;
13834;SDS011;6988;52.614;13.500;2023-08-31T17:43:16;0.80;;;0.60;;
13834;SDS011;6988;52.614;13.500;2023-08-31T17:48:08;1.83;;;1.00;;
13834;SDS011;6988;52.614;13.500;2023-08-31T17:53:01;1.40;;;0.90;;
13834;SDS011;6988;52.614;13.500;2023-08-31T17:57:53;1.30;;;1.00;;
13834;SDS011;6988;52.614;13.500;2023-08-31T18:02:45;1.50;;;1.30;;
13834;SDS011;6988;52.614;13.500;2023-08-31T18:07:38;3.40;;;1.07;;
13834;SDS011;6988;52.614;13.500;2023-08-31T18:12:31;2.40;;;1.00;;
13834;SDS011;6988;52.614;13.500;2023-08-31T18:17:24;1.73;;;1.40;;
13834;SDS011;6988;52.614;13.500;2023-08-31T18:22:15;2.83;;;1.60;;
13834;SDS011;6988;52.614;13.500;2023-08-31T18:27:07;3.00;;;1.47;;
13834;SDS011;6988;52.614;13.500;2023-08-31T18:32:02;3.00;;;1.40;;
13834;SDS011;6988;52.614;13.500;2023-08-31T18:36:54;2.17;;;1.30;;
13834;SDS011;6988;52.614;13.500;2023-08-31T18:41:46;2.13;;;1.50;;
13834;SDS011;6988;52.614;13.500;2023-08-31T18:46:38;2.73;;;1.80;;
13834;SDS011;6988;52.614;13.500;2023-08-31T18:51:31;2.33;;;1.70;;
13834;SDS011;6988;52.614;13.500;2023-08-31T18:56:27;2.23;;;1.50;;
13834;SDS011;6988;52.614;13.500;2023-08-31T19:01:18;3.00;;;1.70;;
13834;SDS011;6988;52.614;13.500;2023-08-31T19:06:10;1.60;;;1.50;;
13834;SDS011;6988;52.614;13.500;2023-08-31T19:11:06;2.90;;;1.60;;
13834;SDS011;6988;52.614;13.500;2023-08-31T19:15:59;4.00;;;1.70;;
13834;SDS011;6988;52.614;13.500;2023-08-31T19:20:51;1.73;;;1.40;;
13834;SDS011;6988;52.614;13.500;2023-08-31T19:25:43;1.80;;;1.30;;
13834;SDS011;6988;52.614;13.500;2023-08-31T19:30:36;2.50;;;1.20;;
13834;SDS011;6988;52.614;13.500;2023-08-31T19:35:28;2.43;;;1.30;;
13834;SDS011;6988;52.614;13.500;2023-08-31T19:40:20;2.90;;;1.50;;
13834;SDS011;6988;52.614;13.500;2023-08-31T19:45:13;1.80;;;1.40;;
13834;SDS011;6988;52.614;13.500;2023-08-31T19:50:09;3.10;;;1.40;;
13834;SDS011;6988;52.614;13.500;2023-08-31T19:55:00;1.50;;;1.33;;
13834;SDS011;6988;52.614;13.500;2023-08-31T19:59:52;1.60;;;1.23;;
13834;SDS011;6988;52.614;13.500;2023-08-31T20:04:44;2.70;;;1.63;;
13834;SDS011;6988;52.614;13.500;2023-08-31T20:09:39;2.73;;;1.53;;
13834;SDS011;6988;52.614;13.500;2023-08-31T20:14:30;1.87;;;1.60;;
13834;SDS011;6988;52.614;13.500;2023-08-31T20:19:22;1.83;;;1.50;;
13834;SDS011;6988;52.614;13.500;2023-08-31T20:24:14;2.93;;;1.67;;
13834;SDS011;6988;52.614;13.500;2023-08-31T20:29:07;3.30;;;1.57;;
13834;SDS011;6988;52.614;13.500;2023-08-31T20:33:59;2.50;;;1.63;;
13834;SDS011;6988;52.614;13.500;2023-08-31T20:38:51;3.97;;;1.97;;
13834;SDS011;6988;52.614;13.500;2023-08-31T20:43:43;2.03;;;1.40;;
13834;SDS011;6988;52.614;13.500;2023-08-31T20:48:36;3.07;;;1.30;;
13834;SDS011;6988;52.614;13.500;2023-08-31T20:53:28;2.10;;;1.50;;
13834;SDS011;6988;52.614;13.500;2023-08-31T20:58:21;2.00;;;1.60;;
13834;SDS011;6988;52.614;13.500;2023-08-31T21:03:12;1.57;;;1.10;;
13834;SDS011;6988;52.614;13.500;2023-08-31T21:08:06;1.50;;;1.40;;
13834;SDS011;6988;52.614;13.500;2023-08-31T21:12:57;2.40;;;1.60;;
13834;SDS011;6988;52.614;13.500;2023-08-31T21:17:49;2.77;;;1.73;;
13834;SDS011;6988;52.614;13.500;2023-08-31T21:22:41;1.70;;;1.50;;
13834;SDS011;6988;52.614;13.500;2023-08-31T21:27:34;2.77;;;1.53;;
13834;SDS011;6988;52.614;13.500;2023-08-31T21:32:26;3.03;;;1.70;;
13834;SDS011;6988;52.614;13.500;2023-08-31T21:37:18;1.60;;;1.40;;
13834;SDS011;6988;52.614;13.500;2023-08-31T21:42:10;3.40;;;1.63;;
13834;SDS011;6988;52.614;13.500;2023-08-31T22:04:07;2.60;;;1.40;;
13834;SDS011;6988;52.614;13.500;2023-08-31T22:09:01;2.27;;;1.50;;
13834;SDS011;6988;52.614;13.500;2023-08-31T22:13:56;2.53;;;1.70;;
13834;SDS011;6988;52.614;13.500;2023-08-31T22:18:47;4.37;;;1.50;;
13834;SDS011;6988;52.614;13.500;2023-08-31T22:23:41;1.70;;;1.37;;
13834;SDS011;6988;52.614;13.500;2023-08-31T22:28:33;2.80;;;1.70;;
13834;SDS011;6988;52.614;13.500;2023-08-31T22:33:25;2.40;;;1.47;;
13834;SDS011;6988;52.614;13.500;2023-08-31T22:38:17;2.20;;;1.43;;
13834;SDS011;6988;52.614;13.500;2023-08-31T22:43:10;2.70;;;1.67;;
13834;SDS011;6988;52.614;13.500;2023-08-31T22:48:02;3.23;;;1.63;;
13834;SDS011;6988;52.614;13.500;2023-08-31T22:52:55;2.27;;;1.60;;
13834;SDS011;6988;52.614;13.500;2023-08-31T22:57:47;2.93;;;1.63;;
13834;SDS011;6988;52.614;13.500;2023-08-31T23:02:40;1.90;;;1.40;;
13834;SDS011;6988;52.614;13.500;2023-08-31T23:07:32;4.27;;;1.67;;
13834;SDS011;6988;52.614;13.500;2023-08-31T23:12:24;2.83;;;1.50;;
13834;SDS011;6988;52.614;13.500;2023-08-31T23:17:18;3.27;;;1.40;;
13834;SDS011;6988;52.614;13.500;2023-08-31T23:22:11;2.80;;;1.50;;
13834;SDS011;6988;52.614;13.500;2023-08-31T23:27:03;2.00;;;1.50;;
13834;SDS011;6988;52.614;13.500;2023-08-31T23:31:55;2.13;;;1.53;;
13834;SDS011;6988;52.614;13.500;2023-08-31T23:36:47;3.27;;;1.50;;
13834;SDS011;6988;52.614;13.500;2023-08-31T23:41:40;2.53;;;1.80;;
13834;SDS011;6988;52.614;13.500;2023-08-31T23:46:32;2.50;;;1.70;;
13834;SDS011;6988;52.614;13.500;2023-08-31T23:51:24;3.77;;;1.60;;
13834;SDS011;6988;52.614;13.500;2023-08-31T23:56:17;2.53;;;1.47;;
